Sand Point, AK

3:09 AM AKDT on September 29, 2016 (GMT -0800)
Sand Point

Weather History for PASD - September, 2013

Change the Weather History Date:

Tuesday, September 3, 2013

  Actual Average Record
Temperature  
Mean Temperature 52 °F -  
Max Temperature 55 °F 53 °F 62 °F (2015)
Min Temperature 48 °F 46 °F 40 °F (1983)
Degree Days  
Heating Degree Days 14    
Growing Degree Days 2 (Base 50)    
Moisture  
Dew Point 49 °F    
Average Humidity 86    
Maximum Humidity 100    
Minimum Humidity 77    
Precipitation  
Precipitation 0.00 in - - ()
Sea Level Pressure  
Sea Level Pressure 29.29 in    
Wind  
Wind Speed 18 mph (SW)    
Max Wind Speed 28 mph    
Max Gust Speed 33 mph    
Visibility 9 miles    
Events      
Averages and records for this station are not official NWS values.
T = Trace of Precipitation, MM = Missing Value Source: NWS Daily Summary

Daily Weather History Graph

Daily Weather History Graph

Search for Another Location

Airport or City:

Trip Planner

Search our weather history database for the weather conditions in past years. The results will help you decide how hot, cold, wet, or windy it might be!

Date:

Astronomy

Sep. 03, 2013 Rise Set
Actual Time 7:52 AM AKDT 9:28 PM AKDT
Civil Twilight 7:14 AM AKDT 10:06 PM AKDT
Nautical Twilight 6:26 AM AKDT 10:54 PM AKDT
Astronomical Twilight 5:32 AM AKDT 11:47 PM AKDT
Moon 6:10 AM AKDT (9/3) 8:23 PM AKDT (9/3)
Length of Visible Light 14h 52m
Length of Day
13h 36m
Waning Crescent, 3% of the Moon is Illuminated
Sep 3
Waning Crescent
Sep 5
New
Sep 12
First Quarter
Sep 19
Full
Sep 26
Last Quarter

Hourly Weather History & Observations

Time (AKDT) Temp. Dew Point Humidity Pressure Visibility Wind Dir Wind Speed Gust Speed Precip Events Conditions
12:16 AM 53.6 °F 51.8 °F 94% 29.22 in 8.0 mi South 23.0 mph 29.9 mph N/A   Overcast
12:36 AM 53.6 °F 51.8 °F 94% 29.21 in 7.0 mi South 24.2 mph 29.9 mph N/A   Overcast
12:56 AM 53.6 °F 51.8 °F 94% 29.20 in 5.0 mi SSE 20.7 mph 26.5 mph N/A   Overcast
1:16 AM 53.6 °F 51.8 °F 94% 29.20 in 5.0 mi SSE 21.9 mph 28.8 mph N/A   Overcast
1:36 AM 51.8 °F 51.8 °F 100% 29.19 in 4.0 mi South 23.0 mph - N/A   Overcast
1:56 AM 51.8 °F 51.8 °F 100% 29.17 in 3.0 mi SSE 25.3 mph 31.1 mph N/A   Overcast
2:16 AM 51.8 °F 51.8 °F 100% 29.16 in 5.0 mi South 25.3 mph 33.4 mph N/A   Overcast
2:36 AM 51.8 °F 51.8 °F 100% 29.16 in 9.0 mi South 27.6 mph 31.1 mph N/A   Overcast
2:56 AM 51.8 °F 51.8 °F 100% 29.16 in 10.0 mi South 26.5 mph 32.2 mph N/A   Overcast
3:16 AM 51.8 °F 51.8 °F 100% 29.16 in 10.0 mi South 23.0 mph 28.8 mph N/A   Overcast
3:36 AM 51.8 °F 51.8 °F 100% 29.17 in 5.0 mi South 20.7 mph 29.9 mph N/A   Overcast
3:56 AM 51.8 °F 50.0 °F 94% 29.17 in 10.0 mi South 20.7 mph 26.5 mph N/A   Overcast
4:16 AM 51.8 °F 48.2 °F 88% 29.18 in 10.0 mi SW 16.1 mph 19.6 mph N/A   Overcast
4:36 AM 51.8 °F 48.2 °F 88% 29.19 in 10.0 mi SSW 13.8 mph - N/A   Overcast
4:56 AM 51.8 °F 48.2 °F 88% 29.19 in 10.0 mi South 16.1 mph 24.2 mph N/A   Overcast
5:16 AM 51.8 °F 48.2 °F 88% 29.20 in 10.0 mi SSW 13.8 mph 21.9 mph N/A   Overcast
5:36 AM 51.8 °F 48.2 °F 88% 29.20 in 10.0 mi SW 12.7 mph 19.6 mph N/A   Overcast
5:56 AM 53.6 °F 48.2 °F 82% 29.20 in 10.0 mi SW 13.8 mph 25.3 mph N/A   Overcast
6:16 AM 53.6 °F 48.2 °F 82% 29.21 in 10.0 mi SW 13.8 mph - N/A   Overcast
6:36 AM 51.8 °F 48.2 °F 88% 29.22 in 10.0 mi SW 12.7 mph 20.7 mph N/A   Overcast
6:56 AM 51.8 °F 48.2 °F 88% 29.22 in 10.0 mi SSW 15.0 mph - N/A   Mostly Cloudy
7:16 AM 51.8 °F 48.2 °F 88% 29.22 in 10.0 mi SSW 15.0 mph 21.9 mph N/A   Mostly Cloudy
7:36 AM 51.8 °F 48.2 °F 88% 29.22 in 10.0 mi SSW 19.6 mph 23.0 mph N/A   Mostly Cloudy
7:56 AM 51.8 °F 48.2 °F 88% 29.23 in 10.0 mi SSW 17.3 mph 24.2 mph N/A   Mostly Cloudy
8:16 AM 51.8 °F 48.2 °F 88% 29.23 in 10.0 mi SSW 16.1 mph 25.3 mph N/A   Mostly Cloudy
8:36 AM 51.8 °F 48.2 °F 88% 29.24 in 10.0 mi SSW 16.1 mph 23.0 mph N/A   Mostly Cloudy
8:56 AM 53.6 °F 48.2 °F 82% 29.24 in 10.0 mi SSW 18.4 mph 21.9 mph N/A   Mostly Cloudy
9:16 AM 53.6 °F 48.2 °F 82% 29.25 in 10.0 mi SW 18.4 mph 24.2 mph N/A   Mostly Cloudy
9:36 AM 53.6 °F 48.2 °F 82% 29.25 in 10.0 mi SW 17.3 mph 23.0 mph N/A   Mostly Cloudy
9:56 AM 51.8 °F 48.2 °F 88% 29.25 in 10.0 mi SW 17.3 mph 23.0 mph N/A   Mostly Cloudy
10:16 AM 53.6 °F 48.2 °F 82% 29.27 in 10.0 mi SW 11.5 mph 16.1 mph N/A   Mostly Cloudy
10:36 AM 53.6 °F 48.2 °F 82% 29.26 in 10.0 mi SSW 16.1 mph 24.2 mph N/A   Mostly Cloudy
10:56 AM 53.6 °F 48.2 °F 82% 29.26 in 10.0 mi SSW 12.7 mph 19.6 mph N/A   Mostly Cloudy
11:16 AM 53.6 °F 48.2 °F 82% 29.27 in 10.0 mi SW 19.6 mph - N/A   Mostly Cloudy
11:36 AM 53.6 °F 48.2 °F 82% 29.28 in 10.0 mi SSW 16.1 mph 25.3 mph N/A   Mostly Cloudy
11:56 AM 53.6 °F 48.2 °F 82% 29.28 in 10.0 mi SSW 13.8 mph 27.6 mph N/A   Mostly Cloudy
12:16 PM 53.6 °F 48.2 °F 82% 29.29 in 10.0 mi SSW 13.8 mph 21.9 mph N/A   Mostly Cloudy
12:36 PM 55.4 °F 48.2 °F 77% 29.29 in 10.0 mi SSW 17.3 mph 21.9 mph N/A   Mostly Cloudy
12:56 PM 55.4 °F 48.2 °F 77% 29.29 in 10.0 mi SSW 16.1 mph 25.3 mph N/A   Mostly Cloudy
1:16 PM 55.4 °F 48.2 °F 77% 29.30 in 10.0 mi SSW 15.0 mph 21.9 mph N/A   Mostly Cloudy
1:36 PM 55.4 °F 48.2 °F 77% 29.30 in 10.0 mi SSW 15.0 mph - N/A   Mostly Cloudy
1:56 PM 55.4 °F 48.2 °F 77% 29.30 in 10.0 mi SW 12.7 mph 26.5 mph N/A   Mostly Cloudy
2:16 PM 55.4 °F 48.2 °F 77% 29.30 in 10.0 mi SSW 15.0 mph - N/A   Mostly Cloudy
2:36 PM 55.4 °F 48.2 °F 77% 29.30 in 10.0 mi SSW 16.1 mph - N/A   Mostly Cloudy
2:56 PM 55.4 °F 48.2 °F 77% 29.30 in 10.0 mi SSW 20.7 mph 27.6 mph N/A   Mostly Cloudy
3:16 PM 55.4 °F 48.2 °F 77% 29.31 in 10.0 mi SSW 15.0 mph 20.7 mph N/A   Mostly Cloudy
3:36 PM 55.4 °F 48.2 °F 77% 29.31 in 10.0 mi SSW 18.4 mph 25.3 mph N/A   Mostly Cloudy
3:56 PM 55.4 °F 48.2 °F 77% 29.31 in 10.0 mi SSW 17.3 mph - N/A   Mostly Cloudy
4:16 PM 53.6 °F 50.0 °F 88% 29.31 in 10.0 mi SSW 16.1 mph 19.6 mph N/A   Mostly Cloudy
4:36 PM 53.6 °F 50.0 °F 88% 29.31 in 10.0 mi SSW 17.3 mph - N/A   Overcast
4:56 PM 53.6 °F 50.0 °F 88% 29.32 in 10.0 mi SSW 13.8 mph 19.6 mph N/A   Mostly Cloudy
5:16 PM 53.6 °F 50.0 °F 88% 29.32 in 10.0 mi SSW 12.7 mph 17.3 mph N/A   Overcast
5:36 PM 53.6 °F 50.0 °F 88% 29.33 in 10.0 mi SW 10.4 mph - N/A   Overcast
5:56 PM 53.6 °F 50.0 °F 88% 29.33 in 10.0 mi SW 12.7 mph 16.1 mph N/A   Mostly Cloudy
6:16 PM 55.4 °F 50.0 °F 82% 29.33 in 10.0 mi SW 10.4 mph - N/A   Mostly Cloudy
6:36 PM 55.4 °F 50.0 °F 82% 29.34 in 10.0 mi SW 6.9 mph - N/A   Mostly Cloudy
6:56 PM 53.6 °F 50.0 °F 88% 29.34 in 10.0 mi SW 8.1 mph - N/A   Mostly Cloudy
7:16 PM 53.6 °F 48.2 °F 82% 29.36 in 10.0 mi WSW 11.5 mph 20.7 mph N/A   Overcast
7:36 PM 53.6 °F 48.2 °F 82% 29.37 in 8.0 mi West 15.0 mph 23.0 mph N/A   Mostly Cloudy
7:56 PM 51.8 °F 48.2 °F 88% 29.38 in 9.0 mi NW 13.8 mph 18.4 mph N/A   Overcast
8:16 PM 51.8 °F 48.2 °F 88% 29.40 in 8.0 mi WNW 12.7 mph - N/A   Overcast
8:36 PM 51.8 °F 46.4 °F 82% 29.41 in 10.0 mi West 9.2 mph - N/A   Overcast
8:56 PM 51.8 °F 46.4 °F 82% 29.42 in 10.0 mi West 9.2 mph - N/A   Overcast
9:16 PM 51.8 °F 46.4 °F 82% 29.44 in 10.0 mi West 17.3 mph 23.0 mph N/A   Overcast
9:36 PM 48.2 °F 46.4 °F 93% 29.45 in 10.0 mi West 5.8 mph - N/A   Overcast
9:56 PM 48.2 °F 46.4 °F 93% 29.45 in 10.0 mi NW 5.8 mph - N/A   Overcast
10:16 PM 48.2 °F 46.4 °F 93% 29.47 in 10.0 mi WNW 6.9 mph - N/A   Overcast
10:36 PM 48.2 °F 46.4 °F 93% 29.48 in 10.0 mi WSW 9.2 mph - N/A   Overcast
10:56 PM 50.0 °F 44.6 °F 82% 29.49 in 10.0 mi West 12.7 mph 19.6 mph N/A   Overcast
11:16 PM 50.0 °F 44.6 °F 82% 29.50 in 10.0 mi WSW 9.2 mph - N/A   Overcast
11:36 PM 50.0 °F 44.6 °F 82% 29.50 in 10.0 mi West 8.1 mph - N/A   Overcast
11:56 PM 50.0 °F 44.6 °F 82% 29.52 in 10.0 mi West 8.1 mph - N/A   Overcast